Аэропорт: Орск. Орск

ICAO: UWOR

METAR:
2022-06-26 11:00:00
UWOR 261100Z 33008G13MPS 9999 BKN049 26/06 Q1007 R25/CLRD65 NOSIG RMK QFE731/0975
METAR:
2022-06-26 07:44:00
TAF UWOR 260744Z 2609/2618 33008G15MPS 9999 BKN020 TX24/2612Z TN17/2618Z TEMPO 2609/2618 36010G19MPS SCT016CB